createdAt,value
2022-10-23T00:01:17.448Z,99.90
2022-10-23T00:03:45.142Z,99.90
2022-10-23T00:06:12.988Z,99.90
2022-10-23T00:08:40.885Z,99.90
2022-10-23T00:11:17.149Z,99.90
2022-10-23T00:13:44.100Z,99.90
2022-10-23T00:16:11.142Z,99.90
2022-10-23T00:18:39.124Z,99.90
2022-10-23T00:21:11.168Z,99.90
2022-10-23T00:23:38.214Z,99.90
2022-10-23T00:26:05.273Z,99.90
2022-10-23T00:28:32.086Z,99.90
2022-10-23T00:31:02.461Z,99.90
2022-10-23T00:33:29.453Z,99.90
2022-10-23T00:35:56.280Z,99.90
2022-10-23T00:38:23.070Z,99.90
2022-10-23T00:43:26.942Z,99.90
2022-10-23T00:45:54.122Z,99.90
2022-10-23T00:48:21.756Z,99.90
2022-10-23T00:50:49.502Z,99.90
2022-10-23T00:53:17.848Z,99.90
2022-10-23T00:55:47.231Z,99.90
2022-10-23T00:58:15.738Z,99.90
2022-10-23T01:00:48.488Z,99.90
2022-10-23T01:03:17.866Z,99.90
2022-10-23T01:05:53.474Z,99.90
2022-10-23T01:08:38.579Z,99.90
2022-10-23T01:11:15.954Z,99.90
2022-10-23T01:16:46.649Z,99.90
2022-10-23T01:19:38.679Z,99.90
2022-10-23T01:22:34.923Z,99.90
2022-10-23T01:25:16.843Z,99.90
2022-10-23T01:27:51.072Z,99.90
2022-10-23T01:30:18.325Z,99.90
2022-10-23T01:32:53.835Z,99.90
2022-10-23T01:35:25.541Z,99.90
2022-10-23T01:37:58.660Z,99.90
2022-10-23T01:40:54.603Z,99.90
2022-10-23T01:43:27.539Z,99.90
2022-10-23T01:46:00.928Z,99.90
2022-10-23T01:48:31.159Z,99.90
2022-10-23T01:51:02.426Z,99.90
2022-10-23T01:53:31.721Z,99.90
2022-10-23T01:56:01.128Z,99.90
2022-10-23T01:58:29.757Z,99.90
2022-10-23T02:01:01.440Z,99.90
2022-10-23T02:03:31.441Z,99.90
2022-10-23T02:05:58.556Z,99.90
2022-10-23T02:08:25.793Z,99.90
2022-10-23T02:11:03.417Z,99.90
2022-10-23T02:13:37.647Z,99.90
2022-10-23T02:16:24.072Z,99.90
2022-10-23T02:19:14.106Z,99.90
2022-10-23T02:21:49.109Z,99.90
2022-10-23T02:24:20.512Z,99.90
2022-10-23T02:26:54.070Z,99.90
2022-10-23T02:29:31.921Z,99.90
2022-10-23T02:31:58.783Z,99.90
2022-10-23T02:34:25.682Z,99.90
2022-10-23T02:36:52.665Z,99.90
2022-10-23T02:39:21.417Z,99.90
2022-10-23T02:42:06.815Z,99.90
2022-10-23T02:44:45.600Z,99.90
2022-10-23T02:47:27.495Z,99.90
2022-10-23T02:50:27.978Z,99.90
2022-10-23T02:53:09.989Z,99.90
2022-10-23T02:55:46.449Z,99.90
2022-10-23T02:58:56.639Z,99.90
2022-10-23T03:01:29.245Z,99.90
2022-10-23T03:03:59.357Z,99.90
2022-10-23T03:06:26.385Z,99.90
2022-10-23T03:08:59.134Z,99.90
2022-10-23T03:11:26.429Z,99.90
2022-10-23T03:13:53.315Z,99.90
2022-10-23T03:16:20.132Z,99.90
2022-10-23T03:18:46.977Z,99.90
2022-10-23T03:21:13.787Z,99.90
2022-10-23T03:23:40.697Z,99.90
2022-10-23T03:26:07.733Z,99.90
2022-10-23T03:28:35.584Z,99.90
2022-10-23T03:31:03.348Z,99.90
2022-10-23T03:33:33.286Z,99.90
2022-10-23T03:36:00.126Z,99.90
2022-10-23T03:38:26.925Z,99.90
2022-10-23T03:40:53.840Z,99.90
2022-10-23T03:43:20.663Z,99.90
2022-10-23T03:45:47.487Z,99.90
2022-10-23T03:48:14.853Z,99.90
2022-10-23T03:50:41.701Z,99.90
2022-10-23T03:53:08.501Z,99.90
2022-10-23T03:55:35.353Z,99.90
2022-10-23T03:58:02.259Z,99.90
2022-10-23T04:00:29.131Z,99.90
2022-10-23T04:02:55.935Z,99.90
2022-10-23T04:05:22.796Z,99.90
2022-10-23T04:07:49.605Z,99.90
2022-10-23T04:10:16.673Z,99.90
2022-10-23T04:12:43.730Z,99.90
2022-10-23T04:15:10.911Z,99.90
2022-10-23T04:17:37.698Z,99.90
2022-10-23T04:20:04.789Z,99.90
2022-10-23T04:22:31.557Z,99.90
2022-10-23T04:24:58.369Z,99.90
2022-10-23T04:27:25.192Z,99.90
2022-10-23T04:29:54.332Z,99.90
2022-10-23T04:32:23.669Z,99.90
2022-10-23T04:34:50.525Z,99.90
2022-10-23T04:37:17.376Z,99.90
2022-10-23T04:39:44.178Z,99.90
2022-10-23T04:42:10.982Z,99.90
2022-10-23T04:44:37.771Z,99.90
2022-10-23T04:47:04.624Z,99.90
2022-10-23T04:49:31.479Z,99.90
2022-10-23T04:51:58.348Z,99.90
2022-10-23T04:54:25.146Z,99.90
2022-10-23T04:56:51.972Z,99.90
2022-10-23T04:59:18.802Z,99.90
2022-10-23T05:01:45.727Z,99.90
2022-10-23T05:04:13.994Z,99.90
2022-10-23T05:06:40.853Z,99.90
2022-10-23T05:09:07.645Z,99.90
2022-10-23T05:11:34.435Z,99.90
2022-10-23T05:14:01.248Z,99.90
2022-10-23T05:17:00.122Z,99.90
2022-10-23T05:19:35.063Z,99.90
2022-10-23T05:22:02.463Z,99.90
2022-10-23T05:24:30.230Z,99.90
2022-10-23T05:26:57.105Z,99.90
2022-10-23T05:29:23.892Z,99.90
2022-10-23T05:31:54.321Z,99.90
2022-10-23T05:34:23.898Z,99.90
2022-10-23T05:36:50.777Z,99.90
2022-10-23T05:39:17.708Z,99.90
2022-10-23T05:41:44.758Z,99.90
2022-10-23T05:44:11.596Z,99.90
2022-10-23T05:46:44.723Z,99.90
2022-10-23T05:49:11.501Z,99.90
2022-10-23T05:51:39.596Z,99.90
2022-10-23T05:54:10.122Z,99.90
2022-10-23T05:56:39.015Z,99.90
2022-10-23T05:59:07.734Z,99.90
2022-10-23T06:01:34.689Z,99.90
2022-10-23T06:04:02.395Z,99.90
2022-10-23T06:06:29.319Z,99.90
2022-10-23T06:08:56.307Z,99.90
2022-10-23T06:11:23.469Z,99.90
2022-10-23T06:13:50.277Z,99.90
2022-10-23T06:16:21.004Z,99.90
2022-10-23T06:18:47.903Z,99.90
2022-10-23T06:21:15.397Z,99.90
2022-10-23T06:23:43.444Z,99.90
2022-10-23T06:26:12.615Z,99.90
2022-10-23T06:28:39.618Z,99.90
2022-10-23T06:31:12.509Z,99.90
2022-10-23T06:33:40.098Z,99.90
2022-10-23T06:36:10.335Z,99.90
2022-10-23T06:38:40.321Z,99.90
2022-10-23T06:41:13.388Z,99.90
2022-10-23T06:43:40.369Z,99.90
2022-10-23T06:46:07.765Z,99.90
2022-10-23T06:48:34.577Z,99.90
2022-10-23T06:51:06.543Z,99.90
2022-10-23T06:53:33.696Z,99.90
2022-10-23T06:56:01.864Z,99.90
2022-10-23T06:58:29.216Z,99.90
2022-10-23T07:00:56.762Z,99.90
2022-10-23T07:03:23.810Z,99.90
2022-10-23T07:05:50.794Z,99.90
2022-10-23T07:08:17.791Z,99.90
2022-10-23T07:10:45.374Z,99.90
2022-10-23T07:13:12.616Z,99.90
2022-10-23T07:15:40.442Z,99.90
2022-10-23T07:18:07.723Z,99.90
2022-10-23T07:20:34.897Z,99.90
2022-10-23T07:23:01.809Z,99.90
2022-10-23T07:25:28.783Z,99.90
2022-10-23T07:27:56.672Z,99.90
2022-10-23T07:30:24.356Z,99.90
2022-10-23T07:32:51.296Z,99.90
2022-10-23T07:35:18.727Z,99.90
2022-10-23T07:37:45.908Z,99.90
2022-10-23T07:40:13.239Z,99.90
2022-10-23T07:42:40.407Z,99.90
2022-10-23T07:45:08.763Z,99.90
2022-10-23T07:47:35.766Z,99.90
2022-10-23T07:50:02.961Z,99.90
2022-10-23T07:52:32.184Z,99.90
2022-10-23T07:55:02.657Z,99.90
2022-10-23T07:57:29.689Z,99.90
2022-10-23T07:59:56.596Z,99.90
2022-10-23T08:02:23.464Z,99.90
2022-10-23T08:04:50.700Z,99.90
2022-10-23T08:07:17.691Z,99.90
2022-10-23T08:09:44.550Z,99.90
2022-10-23T08:12:11.445Z,98.80
2022-10-23T08:14:38.328Z,97.60
2022-10-23T08:17:05.729Z,96.80
2022-10-23T08:19:32.623Z,93.40
2022-10-23T08:21:59.449Z,93.30
2022-10-23T08:24:26.231Z,91.10
2022-10-23T08:26:53.141Z,90.50
2022-10-23T08:29:19.966Z,88.00
2022-10-23T08:31:47.079Z,85.30
2022-10-23T08:34:14.402Z,86.50
2022-10-23T08:36:41.455Z,88.00
2022-10-23T08:39:08.423Z,88.20
2022-10-23T08:41:42.802Z,88.80
2022-10-23T08:44:31.097Z,86.50
2022-10-23T08:47:06.908Z,86.40
2022-10-23T08:49:59.213Z,87.00
2022-10-23T08:52:47.067Z,90.10
2022-10-23T08:55:22.320Z,90.60
2022-10-23T08:58:11.004Z,91.00
2022-10-23T09:00:38.045Z,91.10
2022-10-23T09:03:05.753Z,91.60
2022-10-23T09:05:43.384Z,91.30
2022-10-23T09:08:48.491Z,91.60
2022-10-23T09:12:03.866Z,91.30
2022-10-23T09:14:39.532Z,90.50
2022-10-23T09:17:27.020Z,89.50
2022-10-23T09:20:14.675Z,86.00
2022-10-23T09:22:42.907Z,86.10
2022-10-23T09:25:20.497Z,85.50
2022-10-23T09:32:02.502Z,82.20
2022-10-23T09:38:36.001Z,76.40
2022-10-23T09:51:45.505Z,77.90
2022-10-23T09:54:21.654Z,69.10
2022-10-23T09:57:35.658Z,67.20
2022-10-23T10:03:40.423Z,69.60
2022-10-23T10:06:29.660Z,68.60
2022-10-23T10:12:44.171Z,61.30
2022-10-23T10:15:40.697Z,59.40
2022-10-23T10:18:11.584Z,57.40
2022-10-23T10:20:54.246Z,56.60
2022-10-23T10:23:35.734Z,56.00
2022-10-23T10:26:05.234Z,54.90
2022-10-23T10:29:04.533Z,55.90
2022-10-23T10:32:24.812Z,55.50
2022-10-23T10:35:08.518Z,56.80
2022-10-23T10:38:15.477Z,55.80
2022-10-23T10:41:45.683Z,54.30
2022-10-23T10:44:13.968Z,53.30
2022-10-23T10:46:47.173Z,53.70
2022-10-23T10:49:46.983Z,54.20
2022-10-23T10:53:03.228Z,53.50
2022-10-23T10:55:43.319Z,54.20
2022-10-23T10:58:21.511Z,55.60
2022-10-23T11:00:57.080Z,56.30
2022-10-23T11:03:42.610Z,55.70
2022-10-23T11:06:28.057Z,54.80
2022-10-23T11:09:03.850Z,55.40
2022-10-23T11:11:42.159Z,55.40
2022-10-23T11:14:21.564Z,55.60
2022-10-23T11:17:11.149Z,55.80
2022-10-23T11:19:50.250Z,56.20
2022-10-23T11:22:29.078Z,57.10
2022-10-23T11:29:55.581Z,56.20
2022-10-23T11:39:47.359Z,61.90
2022-10-23T11:46:31.380Z,61.50
2022-10-23T11:48:59.127Z,61.70
2022-10-23T11:52:50.625Z,61.40
2022-10-23T11:56:06.735Z,62.60
2022-10-23T12:14:03.545Z,63.70
2022-10-23T13:58:23.280Z,73.20
2022-10-23T14:01:10.788Z,73.10
2022-10-23T14:10:08.005Z,74.40
2022-10-23T15:27:14.984Z,99.90
2022-10-23T15:29:41.973Z,99.90
2022-10-23T15:32:10.373Z,99.90
2022-10-23T15:34:37.766Z,99.90
2022-10-23T15:37:05.445Z,99.90
2022-10-23T15:39:35.679Z,99.90
2022-10-23T15:42:05.664Z,99.90
2022-10-23T15:44:33.501Z,99.90
2022-10-23T15:47:00.754Z,99.90
2022-10-23T15:49:31.852Z,99.90
2022-10-23T15:51:59.369Z,99.90
2022-10-23T15:54:29.237Z,99.90
2022-10-23T15:56:58.876Z,99.90
2022-10-23T15:59:26.907Z,99.90
2022-10-23T16:01:55.530Z,99.90
2022-10-23T16:04:22.781Z,99.90
2022-10-23T16:06:50.057Z,99.90
2022-10-23T16:09:17.442Z,99.90
2022-10-23T16:11:44.757Z,99.90
2022-10-23T16:14:17.234Z,99.90
2022-10-23T16:16:44.410Z,99.90
2022-10-23T16:19:11.929Z,99.90
2022-10-23T16:21:38.961Z,99.90
2022-10-23T16:24:07.672Z,99.90
2022-10-23T16:26:35.412Z,99.90
2022-10-23T16:29:05.533Z,99.90
2022-10-23T16:31:33.016Z,99.90
2022-10-23T16:34:01.177Z,99.90
2022-10-23T16:36:29.280Z,99.90
2022-10-23T16:38:56.253Z,99.90
2022-10-23T16:41:23.082Z,99.90
2022-10-23T16:43:50.164Z,99.90
2022-10-23T16:46:20.748Z,99.90
2022-10-23T16:48:49.131Z,99.90
2022-10-23T16:51:19.465Z,99.90
2022-10-23T16:53:47.004Z,99.90
2022-10-23T16:56:17.513Z,99.90
2022-10-23T16:58:44.466Z,99.90
2022-10-23T17:01:20.966Z,99.90
2022-10-23T17:03:50.377Z,99.90
2022-10-23T17:06:23.169Z,99.90
2022-10-23T17:08:50.928Z,99.90
2022-10-23T17:11:29.282Z,99.90
2022-10-23T17:14:07.795Z,99.90
2022-10-23T17:16:46.985Z,99.90
2022-10-23T17:19:33.013Z,99.90
2022-10-23T17:22:02.384Z,99.90
2022-10-23T17:24:29.193Z,99.90
2022-10-23T17:26:56.257Z,99.90
2022-10-23T17:29:23.093Z,99.90
2022-10-23T17:31:51.306Z,99.90
2022-10-23T17:34:22.847Z,99.90
2022-10-23T17:36:52.212Z,99.90
2022-10-23T17:39:23.075Z,99.90
2022-10-23T17:41:50.101Z,99.90
2022-10-23T17:44:16.949Z,99.90
2022-10-23T17:46:43.888Z,99.90
2022-10-23T17:49:11.193Z,99.90
2022-10-23T17:51:38.540Z,99.90
2022-10-23T17:54:08.399Z,99.90
2022-10-23T17:56:37.677Z,99.90
2022-10-23T17:59:14.093Z,99.90
2022-10-23T18:01:43.819Z,99.90
2022-10-23T18:04:10.855Z,99.90
2022-10-23T18:06:45.362Z,99.90
2022-10-23T18:09:13.043Z,99.90
2022-10-23T18:11:46.818Z,99.90
2022-10-23T18:14:16.425Z,99.90
2022-10-23T18:16:43.406Z,99.90
2022-10-23T18:19:11.065Z,99.90
2022-10-23T18:21:38.073Z,99.90
2022-10-23T18:24:05.290Z,99.90
2022-10-23T18:26:39.161Z,99.90
2022-10-23T18:29:09.808Z,99.90
2022-10-23T18:31:37.654Z,99.90
2022-10-23T18:34:24.752Z,99.90
2022-10-23T18:36:53.765Z,99.90
2022-10-23T18:39:24.289Z,99.90
2022-10-23T18:41:53.961Z,99.90
2022-10-23T18:44:21.758Z,99.90
2022-10-23T18:46:49.772Z,99.90
2022-10-23T18:49:18.190Z,99.90
2022-10-23T18:51:45.582Z,99.90
2022-10-23T18:54:15.404Z,99.90
2022-10-23T18:56:42.784Z,99.90
2022-10-23T18:59:18.792Z,99.90
2022-10-23T19:01:45.787Z,99.90
2022-10-23T19:04:15.789Z,99.90
2022-10-23T19:06:42.920Z,99.90
2022-10-23T19:09:13.931Z,99.90
2022-10-23T19:11:41.416Z,99.90
2022-10-23T19:14:08.687Z,99.90
2022-10-23T19:17:01.570Z,99.90
2022-10-23T19:19:41.049Z,99.90
2022-10-23T19:22:10.183Z,99.90
2022-10-23T19:24:40.793Z,99.90
2022-10-23T19:27:08.890Z,99.90
2022-10-23T19:29:40.847Z,99.90
2022-10-23T19:32:07.852Z,99.90
2022-10-23T19:34:34.720Z,99.90
2022-10-23T19:37:01.588Z,99.90
2022-10-23T19:39:28.654Z,99.90
2022-10-23T19:41:55.811Z,99.90
2022-10-23T19:44:22.625Z,99.90
2022-10-23T19:46:49.719Z,99.90
2022-10-23T19:49:17.735Z,99.90
2022-10-23T19:51:51.266Z,99.90
2022-10-23T19:54:20.102Z,99.90
2022-10-23T19:56:47.297Z,99.90
2022-10-23T19:59:14.625Z,99.90
2022-10-23T20:01:45.051Z,99.90
2022-10-23T20:04:16.026Z,99.90
2022-10-23T20:06:42.851Z,99.90
2022-10-23T20:09:10.000Z,99.90
2022-10-23T20:11:39.973Z,99.90
2022-10-23T20:14:07.617Z,99.90
2022-10-23T20:16:37.594Z,99.90
2022-10-23T20:19:07.489Z,99.90
2022-10-23T20:21:39.056Z,99.90
2022-10-23T20:24:06.513Z,99.90
2022-10-23T20:26:33.501Z,99.90
2022-10-23T20:29:00.323Z,99.90
2022-10-23T20:31:28.197Z,99.90
2022-10-23T20:33:56.263Z,99.90
2022-10-23T20:36:30.588Z,99.90
2022-10-23T20:38:59.073Z,99.90
2022-10-23T20:41:28.547Z,99.90
2022-10-23T20:43:56.229Z,99.90
2022-10-23T20:46:23.499Z,99.90
2022-10-23T20:48:50.910Z,99.90
2022-10-23T20:51:20.261Z,99.90
2022-10-23T20:53:51.389Z,99.90
2022-10-23T20:56:24.278Z,99.90
2022-10-23T20:58:51.222Z,99.90
2022-10-23T21:01:18.870Z,99.90
2022-10-23T21:03:51.083Z,99.90
2022-10-23T21:06:19.485Z,99.90
2022-10-23T21:08:46.749Z,99.90
2022-10-23T21:11:15.750Z,99.90
2022-10-23T21:13:44.225Z,99.90
2022-10-23T21:16:24.931Z,99.90
2022-10-23T21:18:56.308Z,99.90
2022-10-23T21:21:23.894Z,99.90
2022-10-23T21:23:53.117Z,99.90
2022-10-23T21:26:21.736Z,99.90
2022-10-23T21:28:56.289Z,99.90
2022-10-23T21:31:37.823Z,99.90
2022-10-23T21:34:05.393Z,99.90
2022-10-23T21:36:34.301Z,99.90
2022-10-23T21:39:04.361Z,99.90
2022-10-23T21:41:33.316Z,99.90
2022-10-23T21:44:02.672Z,99.90
2022-10-23T21:46:31.173Z,99.90
2022-10-23T21:49:00.130Z,99.90
2022-10-23T21:51:37.150Z,99.90
2022-10-23T21:54:07.132Z,99.90
2022-10-23T21:56:48.715Z,99.90
2022-10-23T21:59:18.395Z,99.90
2022-10-23T22:01:46.876Z,99.90
2022-10-23T22:04:17.192Z,99.90
2022-10-23T22:06:45.232Z,99.90
2022-10-23T22:09:14.489Z,99.90
2022-10-23T22:11:41.681Z,99.90
2022-10-23T22:14:08.508Z,99.90
2022-10-23T22:16:35.376Z,99.90
2022-10-23T22:19:02.584Z,99.90
2022-10-23T22:21:30.505Z,99.90
2022-10-23T22:23:59.187Z,99.90
2022-10-23T22:26:37.950Z,99.90
2022-10-23T22:29:12.156Z,99.90
2022-10-23T22:31:42.996Z,99.90
2022-10-23T22:34:25.315Z,99.90
2022-10-23T22:37:00.942Z,99.90
2022-10-23T22:39:27.745Z,99.90
2022-10-23T22:41:54.573Z,99.90
2022-10-23T22:44:21.395Z,99.90
2022-10-23T22:46:48.243Z,99.90
2022-10-23T22:49:15.092Z,99.90
2022-10-23T22:51:42.007Z,99.90
2022-10-23T22:54:08.952Z,99.90
2022-10-23T22:56:35.933Z,99.90
2022-10-23T22:59:03.837Z,99.90
2022-10-23T23:01:34.603Z,99.90
2022-10-23T23:04:13.796Z,99.90
2022-10-23T23:06:48.730Z,99.90
2022-10-23T23:09:18.024Z,99.90
2022-10-23T23:11:51.905Z,99.90
2022-10-23T23:14:23.191Z,99.90
2022-10-23T23:16:54.589Z,99.90
2022-10-23T23:19:23.262Z,99.90
2022-10-23T23:21:50.527Z,99.90
2022-10-23T23:24:17.490Z,99.90
2022-10-23T23:26:44.376Z,99.90
2022-10-23T23:29:11.503Z,99.90
2022-10-23T23:31:38.675Z,99.90
2022-10-23T23:34:05.515Z,99.90
2022-10-23T23:36:32.782Z,99.90
2022-10-23T23:39:00.389Z,99.90
2022-10-23T23:41:28.365Z,99.90
2022-10-23T23:43:57.787Z,99.90
2022-10-23T23:46:26.168Z,99.90
2022-10-23T23:48:53.024Z,99.90
2022-10-23T23:51:23.134Z,99.90
2022-10-23T23:53:50.905Z,99.90
2022-10-23T23:56:18.879Z,99.90
2022-10-23T23:58:45.853Z,99.90
